Time;durP1;ratioP1;P1;durP2;ratioP2;P2;SDS_P1;SDS_P2;PMS_P1;PMS_P2;Temp;Humidity;BMP_temperature;BMP_pressure;BME280_temperature;BME280_humidity;BME280_pressure;Samples;Min_cycle;Max_cycle;Signal;HPM_P1;HPM_P2
2022/11/23 00:01:33;;;;;;;7.40;1.63;;;11.70;56.70;;;;;;5021763;28;20053;-41
2022/11/23 00:04:03;;;;;;;7.82;1.55;;;11.70;56.60;;;;;;5024306;28;20065;-46
2022/11/23 00:06:30;;;;;;;7.97;1.60;;;11.80;56.60;;;;;;5026395;28;20076;-41
2022/11/23 00:08:57;;;;;;;6.18;1.40;;;11.80;56.60;;;;;;5023229;28;20056;-42
2022/11/23 00:11:26;;;;;;;7.03;1.20;;;11.80;56.60;;;;;;5020707;28;20061;-43
2022/11/23 00:13:54;;;;;;;5.38;1.38;;;11.80;56.50;;;;;;5025871;28;20057;-41
2022/11/23 00:16:24;;;;;;;6.30;1.52;;;11.80;56.50;;;;;;5023019;28;20072;-40
2022/11/23 00:18:53;;;;;;;5.45;1.38;;;11.90;56.50;;;;;;5025469;28;20064;-41
2022/11/23 00:21:21;;;;;;;8.60;1.85;;;11.90;56.40;;;;;;5020184;28;20485;-41
2022/11/23 00:23:48;;;;;;;5.55;1.35;;;11.90;56.40;;;;;;5024688;28;20425;-41
2022/11/23 00:26:17;;;;;;;6.93;1.08;;;11.90;56.40;;;;;;5024629;28;20497;-42
2022/11/23 00:28:45;;;;;;;4.75;1.02;;;11.90;56.30;;;;;;5024657;28;20061;-43
2022/11/23 00:31:14;;;;;;;6.57;1.10;;;11.90;56.30;;;;;;5019678;28;20402;-41
2022/11/23 00:33:42;;;;;;;9.10;1.65;;;11.90;56.30;;;;;;5024222;28;20041;-41
2022/11/23 00:36:12;;;;;;;5.63;1.10;;;11.90;56.20;;;;;;5024293;28;20497;-39
2022/11/23 00:38:40;;;;;;;8.68;1.23;;;11.90;56.20;;;;;;5025489;28;20053;-40
2022/11/23 00:41:09;;;;;;;6.82;1.55;;;12.00;56.10;;;;;;5021169;28;20387;-40
2022/11/23 00:43:36;;;;;;;8.02;1.33;;;11.90;56.10;;;;;;5025093;28;20057;-45
2022/11/23 00:46:08;;;;;;;5.63;1.15;;;12.00;56.10;;;;;;5021597;28;20046;-41
2022/11/23 00:48:36;;;;;;;5.10;1.45;;;12.00;56.00;;;;;;5023388;28;20141;-45
2022/11/23 00:51:06;;;;;;;5.03;1.00;;;12.00;56.00;;;;;;5018583;28;20414;-42
2022/11/23 00:53:34;;;;;;;7.93;0.90;;;12.00;56.10;;;;;;5025470;28;20053;-41
2022/11/23 00:56:01;;;;;;;6.50;1.10;;;12.00;56.10;;;;;;5023531;28;20060;-42
2022/11/23 00:58:29;;;;;;;4.45;1.05;;;12.00;56.00;;;;;;5023625;28;20485;-41
2022/11/23 01:01:04;;;;;;;5.05;0.95;;;12.00;56.00;;;;;;5019935;28;20049;-42
2022/11/23 01:03:31;;;;;;;3.85;1.00;;;12.00;56.00;;;;;;5025102;28;20060;-40
2022/11/23 01:06:07;;;;;;;6.90;1.13;;;12.00;56.00;;;;;;5023261;28;20072;-40
2022/11/23 01:08:34;;;;;;;4.82;1.25;;;12.00;55.90;;;;;;5021803;28;20049;-41
2022/11/23 01:11:03;;;;;;;5.47;1.30;;;12.00;55.90;;;;;;5018433;28;20052;-41
2022/11/23 01:13:31;;;;;;;8.02;1.50;;;12.00;56.00;;;;;;5024400;28;20057;-41
2022/11/23 01:15:58;;;;;;;5.50;1.70;;;12.10;56.00;;;;;;5022042;28;20053;-44
2022/11/23 01:18:27;;;;;;;5.85;1.20;;;12.00;55.90;;;;;;5023680;28;20053;-41
2022/11/23 01:20:54;;;;;;;4.05;1.08;;;12.10;56.00;;;;;;5021390;28;20049;-41
2022/11/23 01:23:22;;;;;;;6.45;1.52;;;12.10;56.10;;;;;;5025024;28;21715;-40
2022/11/23 01:25:49;;;;;;;4.75;1.13;;;12.10;56.10;;;;;;5023051;28;20045;-44
2022/11/23 01:28:17;;;;;;;5.80;1.23;;;12.10;56.10;;;;;;5023618;28;20045;-44
2022/11/23 01:30:44;;;;;;;4.80;1.15;;;12.10;56.10;;;;;;5018626;28;20417;-44
2022/11/23 01:33:11;;;;;;;3.90;1.15;;;12.10;56.10;;;;;;5022892;28;20059;-41
2022/11/23 01:35:38;;;;;;;3.30;1.13;;;12.10;56.10;;;;;;5022014;28;20050;-41
2022/11/23 01:38:06;;;;;;;3.53;1.00;;;12.10;56.10;;;;;;5024049;28;20057;-47
2022/11/23 01:40:41;;;;;;;5.22;1.10;;;12.10;56.30;;;;;;5020020;28;20053;-42
2022/11/23 01:43:15;;;;;;;5.13;1.30;;;12.10;56.10;;;;;;5023949;28;20053;-40
2022/11/23 01:45:44;;;;;;;6.20;1.52;;;12.10;56.10;;;;;;5020927;28;20056;-46
2022/11/23 01:48:16;;;;;;;7.60;1.27;;;12.10;56.10;;;;;;5024406;28;20068;-41
2022/11/23 01:50:46;;;;;;;3.03;1.05;;;12.10;56.10;;;;;;5019139;28;20056;-41
2022/11/23 01:53:14;;;;;;;4.25;1.10;;;12.10;56.10;;;;;;5022333;28;20409;-43
2022/11/23 01:55:43;;;;;;;5.10;1.00;;;12.10;56.10;;;;;;5022427;28;20060;-43
2022/11/23 01:58:14;;;;;;;3.97;1.00;;;12.10;56.10;;;;;;5023313;28;20409;-42
2022/11/23 02:00:41;;;;;;;4.05;1.17;;;12.20;56.10;;;;;;5016681;28;20496;-41
2022/11/23 02:03:09;;;;;;;4.53;1.08;;;12.10;56.10;;;;;;5023734;28;20061;-42
2022/11/23 02:05:42;;;;;;;4.88;1.00;;;12.10;56.10;;;;;;5021294;28;20049;-43
2022/11/23 02:08:09;;;;;;;6.68;1.23;;;12.20;56.10;;;;;;5023529;28;20053;-40
2022/11/23 02:10:37;;;;;;;7.40;1.30;;;12.20;56.10;;;;;;5018237;28;20057;-43
2022/11/23 02:13:07;;;;;;;4.13;0.95;;;12.20;56.10;;;;;;5021525;28;20057;-46
2022/11/23 02:15:35;;;;;;;3.70;0.98;;;12.20;56.10;;;;;;5018931;28;20425;-43
2022/11/23 02:18:06;;;;;;;4.47;1.17;;;12.20;56.10;;;;;;5022202;28;20049;-43
2022/11/23 02:20:33;;;;;;;4.65;0.85;;;12.20;56.10;;;;;;5018811;28;20409;-41
2022/11/23 02:23:16;;;;;;;3.97;0.90;;;12.20;56.10;;;;;;5023616;28;20069;-44
2022/11/23 02:25:55;;;;;;;4.97;1.00;;;12.20;56.10;;;;;;5022526;28;20080;-42
2022/11/23 02:28:25;;;;;;;5.85;1.05;;;12.20;56.10;;;;;;5022024;28;20068;-43
2022/11/23 02:30:55;;;;;;;4.57;1.45;;;12.20;56.10;;;;;;5019685;28;20065;-41
2022/11/23 02:33:22;;;;;;;7.32;1.40;;;12.20;56.00;;;;;;5020423;28;20053;-41
2022/11/23 02:35:51;;;;;;;6.93;1.10;;;12.20;56.10;;;;;;5023259;28;20064;-44
2022/11/23 02:38:20;;;;;;;6.03;1.17;;;12.30;56.10;;;;;;5014723;28;20061;-43
2022/11/23 02:40:48;;;;;;;6.40;1.30;;;12.20;56.00;;;;;;5019011;28;20053;-41
2022/11/23 02:43:16;;;;;;;5.13;1.20;;;12.30;56.10;;;;;;5022288;28;20124;-42
2022/11/23 02:45:49;;;;;;;3.80;0.73;;;12.30;56.10;;;;;;5020545;28;20409;-43
2022/11/23 02:48:17;;;;;;;3.92;1.02;;;12.20;56.00;;;;;;5020999;28;20045;-40
2022/11/23 02:50:44;;;;;;;7.40;1.40;;;12.20;56.00;;;;;;5018260;28;20049;-41
2022/11/23 02:53:12;;;;;;;9.27;1.25;;;12.30;56.10;;;;;;5023231;28;20072;-43
2022/11/23 02:55:39;;;;;;;5.95;1.17;;;12.30;56.00;;;;;;5021384;28;20057;-46
2022/11/23 02:58:08;;;;;;;7.95;1.60;;;12.30;56.00;;;;;;5021538;28;20060;-44
2022/11/23 03:00:36;;;;;;;7.78;1.20;;;12.30;56.00;;;;;;5019204;28;20053;-44
2022/11/23 03:03:04;;;;;;;5.28;1.35;;;12.30;56.00;;;;;;5017973;28;20053;-46
2022/11/23 03:05:31;;;;;;;7.43;1.38;;;12.30;56.00;;;;;;5020824;28;20053;-46
2022/11/23 03:07:58;;;;;;;6.15;1.38;;;12.30;56.00;;;;;;5022462;28;20061;-45
2022/11/23 03:10:26;;;;;;;5.75;1.15;;;12.30;55.90;;;;;;5018869;28;20490;-41
2022/11/23 03:12:55;;;;;;;7.03;1.63;;;12.30;55.80;;;;;;5021108;28;20053;-42
2022/11/23 03:15:24;;;;;;;6.70;1.10;;;12.30;55.80;;;;;;5020474;28;20053;-42
2022/11/23 03:17:51;;;;;;;13.25;2.30;;;12.30;55.80;;;;;;5019852;28;20049;-41
2022/11/23 03:20:19;;;;;;;7.63;1.75;;;12.30;55.80;;;;;;5020079;28;20053;-41
2022/11/23 03:22:46;;;;;;;10.35;1.75;;;12.30;55.70;;;;;;5026130;28;20413;-41
2022/11/23 03:25:14;;;;;;;5.03;1.48;;;12.30;55.70;;;;;;5025388;28;20053;-42
2022/11/23 03:27:41;;;;;;;6.53;1.50;;;12.30;55.70;;;;;;5025089;28;20042;-45
2022/11/23 03:30:09;;;;;;;6.43;1.50;;;12.20;55.60;;;;;;5020961;28;20079;-44
2022/11/23 03:32:38;;;;;;;4.15;1.40;;;12.20;55.60;;;;;;5023366;28;20057;-43
2022/11/23 03:35:07;;;;;;;7.50;1.38;;;12.30;55.60;;;;;;5024164;28;20057;-44
2022/11/23 03:37:34;;;;;;;7.10;1.15;;;12.20;55.50;;;;;;5026009;28;20060;-41
2022/11/23 03:40:02;;;;;;;7.22;1.35;;;12.30;55.60;;;;;;5024720;28;20054;-46
2022/11/23 03:42:29;;;;;;;6.25;1.38;;;12.20;55.50;;;;;;5025560;28;20068;-41
2022/11/23 03:44:56;;;;;;;4.40;1.00;;;12.20;55.50;;;;;;5024254;28;20421;-45
2022/11/23 03:47:23;;;;;;;4.88;1.05;;;12.20;55.50;;;;;;5023510;28;20053;-40
2022/11/23 03:49:52;;;;;;;4.78;1.15;;;12.20;55.50;;;;;;5025829;28;20081;-41
2022/11/23 03:52:19;;;;;;;5.70;1.80;;;12.20;55.50;;;;;;5022224;28;20056;-41
2022/11/23 03:54:46;;;;;;;7.90;1.40;;;12.20;55.50;;;;;;5024927;28;20065;-41
2022/11/23 03:57:14;;;;;;;8.10;1.50;;;12.20;55.50;;;;;;5026588;28;20482;-42
2022/11/23 03:59:41;;;;;;;9.65;1.98;;;12.20;55.50;;;;;;5022260;28;20046;-43
2022/11/23 04:02:08;;;;;;;5.85;1.85;;;12.20;55.50;;;;;;5022544;28;20504;-40
2022/11/23 04:04:36;;;;;;;8.38;1.30;;;12.20;55.50;;;;;;5024498;28;20509;-42
2022/11/23 04:07:04;;;;;;;7.65;1.25;;;12.20;55.50;;;;;;5026439;28;20493;-41
2022/11/23 04:09:32;;;;;;;6.35;1.23;;;12.20;55.50;;;;;;5024375;28;20094;-42
2022/11/23 04:11:59;;;;;;;4.82;1.42;;;12.20;55.60;;;;;;5021388;28;20053;-41
2022/11/23 04:14:26;;;;;;;6.13;1.23;;;12.10;55.50;;;;;;5024457;28;20050;-42
2022/11/23 04:16:53;;;;;;;5.32;1.30;;;12.20;55.60;;;;;;5021872;28;20049;-41
2022/11/23 04:19:21;;;;;;;11.65;1.95;;;12.10;55.50;;;;;;5024779;28;20529;-44
2022/11/23 04:21:48;;;;;;;4.82;1.35;;;12.10;55.50;;;;;;5017878;28;20046;-41
2022/11/23 04:24:16;;;;;;;4.30;0.93;;;12.10;55.50;;;;;;5022327;28;20053;-41
2022/11/23 04:26:44;;;;;;;9.73;1.38;;;12.10;55.50;;;;;;5025241;28;20053;-40
2022/11/23 04:29:11;;;;;;;7.63;1.50;;;12.10;55.50;;;;;;5022930;28;20494;-46
2022/11/23 04:31:38;;;;;;;5.32;1.48;;;12.10;55.50;;;;;;5018143;28;20054;-44
2022/11/23 04:34:05;;;;;;;6.38;1.25;;;12.10;55.50;;;;;;5024965;28;20049;-44
2022/11/23 04:36:33;;;;;;;7.65;1.40;;;12.10;55.60;;;;;;5022891;28;20045;-41
2022/11/23 04:39:01;;;;;;;5.30;1.45;;;12.10;55.60;;;;;;5020417;28;20052;-41
2022/11/23 04:41:30;;;;;;;3.45;0.95;;;12.10;55.60;;;;;;5023218;28;20053;-42
2022/11/23 04:43:57;;;;;;;5.82;1.50;;;12.10;55.70;;;;;;5024959;28;20083;-42
2022/11/23 04:46:25;;;;;;;6.47;1.23;;;12.10;55.60;;;;;;5021707;28;20778;-43
2022/11/23 04:48:52;;;;;;;6.55;1.15;;;12.10;55.60;;;;;;5024465;28;20057;-41
2022/11/23 04:51:19;;;;;;;3.38;1.05;;;12.10;55.60;;;;;;5021700;28;20061;-40
2022/11/23 04:53:46;;;;;;;7.35;1.13;;;12.10;55.50;;;;;;5025107;28;20053;-42
2022/11/23 04:56:13;;;;;;;1.98;0.70;;;12.10;55.60;;;;;;5021752;28;20121;-40
2022/11/23 04:58:42;;;;;;;8.70;1.33;;;12.10;55.60;;;;;;5022692;28;20065;-41
2022/11/23 05:01:09;;;;;;;11.13;1.48;;;12.10;55.60;;;;;;5021007;28;20064;-41
2022/11/23 05:03:37;;;;;;;7.78;1.92;;;12.10;55.50;;;;;;5024665;28;20061;-46
2022/11/23 05:06:06;;;;;;;9.52;1.23;;;12.10;55.50;;;;;;5024893;28;20045;-43
2022/11/23 05:08:33;;;;;;;5.18;1.13;;;12.10;55.50;;;;;;5024409;28;20057;-41
2022/11/23 05:11:01;;;;;;;4.35;1.10;;;12.10;55.50;;;;;;5021667;28;20414;-41
2022/11/23 05:13:28;;;;;;;5.20;1.10;;;12.10;55.50;;;;;;5022550;28;20049;-44
2022/11/23 05:15:56;;;;;;;2.72;0.80;;;12.10;55.50;;;;;;5019907;28;20057;-43
2022/11/23 05:18:24;;;;;;;8.77;1.15;;;12.10;55.50;;;;;;5021534;28;20405;-41
2022/11/23 05:20:51;;;;;;;4.38;1.00;;;12.10;55.50;;;;;;5023199;28;20060;-41
2022/11/23 05:23:19;;;;;;;7.20;1.50;;;12.10;55.50;;;;;;5023627;28;20049;-42
2022/11/23 05:25:46;;;;;;;3.47;1.05;;;12.10;55.50;;;;;;5024352;28;20061;-42
2022/11/23 05:28:16;;;;;;;6.28;1.30;;;12.10;55.50;;;;;;5023094;28;20405;-43
2022/11/23 05:30:44;;;;;;;8.85;1.63;;;12.00;55.50;;;;;;5019639;28;20049;-42
2022/11/23 05:33:13;;;;;;;4.25;1.00;;;12.00;55.50;;;;;;5023897;28;20060;-41
2022/11/23 05:35:40;;;;;;;8.30;1.27;;;12.00;55.50;;;;;;5021119;28;20150;-42
2022/11/23 05:38:07;;;;;;;6.00;1.08;;;12.10;55.60;;;;;;5020642;28;20060;-40
2022/11/23 05:40:35;;;;;;;10.35;1.30;;;12.00;55.60;;;;;;5023716;28;20053;-40
2022/11/23 05:43:02;;;;;;;7.95;1.58;;;12.00;55.70;;;;;;5022965;28;20485;-40
2022/11/23 05:45:29;;;;;;;7.60;1.77;;;12.00;55.70;;;;;;5019284;28;21259;-40
2022/11/23 05:47:58;;;;;;;48.00;17.30;;;12.00;55.70;;;;;;5021455;28;20056;-41
2022/11/23 05:50:28;;;;;;;16.63;4.68;;;11.90;55.70;;;;;;5021800;28;20497;-41
2022/11/23 05:52:56;;;;;;;8.48;2.33;;;12.00;55.80;;;;;;5022234;28;20064;-41
2022/11/23 05:55:24;;;;;;;6.32;1.30;;;12.00;55.80;;;;;;5020282;28;20053;-41
2022/11/23 05:57:51;;;;;;;6.18;1.35;;;12.00;55.80;;;;;;5020370;28;20053;-41
2022/11/23 06:00:19;;;;;;;4.80;1.20;;;12.00;55.80;;;;;;5019178;28;20060;-46
2022/11/23 06:02:46;;;;;;;8.32;1.27;;;11.90;55.80;;;;;;5020745;28;20072;-41
2022/11/23 06:05:14;;;;;;;9.57;1.88;;;12.00;55.80;;;;;;5020146;28;20057;-40
2022/11/23 06:07:42;;;;;;;8.93;1.90;;;11.90;55.80;;;;;;5023450;28;20054;-41
2022/11/23 06:10:11;;;;;;;8.07;1.20;;;11.90;55.80;;;;;;5020625;28;20080;-40
2022/11/23 06:12:38;;;;;;;9.18;1.40;;;11.90;55.80;;;;;;5022268;28;20065;-43
2022/11/23 06:15:07;;;;;;;9.10;1.52;;;11.90;55.80;;;;;;5022108;28;20049;-42
2022/11/23 06:17:35;;;;;;;20.77;7.20;;;11.90;55.80;;;;;;5021116;28;20055;-41
2022/11/23 06:20:03;;;;;;;9.98;3.13;;;11.90;55.90;;;;;;5019551;28;20054;-41
2022/11/23 06:22:30;;;;;;;11.40;1.90;;;11.90;55.90;;;;;;5022680;28;20053;-44
2022/11/23 06:24:59;;;;;;;7.65;2.03;;;11.90;55.90;;;;;;5022757;28;20065;-42
2022/11/23 06:27:26;;;;;;;8.98;1.77;;;11.90;55.90;;;;;;5022148;28;20448;-43
2022/11/23 06:29:53;;;;;;;10.75;2.03;;;11.90;55.90;;;;;;5020894;28;20056;-43
2022/11/23 06:32:20;;;;;;;10.23;2.03;;;11.90;55.90;;;;;;5020859;28;20408;-41
2022/11/23 06:34:48;;;;;;;8.93;1.40;;;11.80;55.90;;;;;;5022074;28;20064;-41
2022/11/23 06:37:15;;;;;;;15.88;3.92;;;11.80;56.00;;;;;;5020190;28;20397;-44
2022/11/23 06:39:42;;;;;;;21.60;7.00;;;11.80;56.00;;;;;;5018054;28;20056;-41
2022/11/23 06:42:11;;;;;;;14.68;2.60;;;11.80;56.10;;;;;;5018103;28;20054;-42
2022/11/23 06:44:38;;;;;;;13.40;1.77;;;11.80;56.10;;;;;;5022064;28;20057;-45
2022/11/23 06:47:05;;;;;;;9.50;1.88;;;11.80;56.10;;;;;;5017380;28;20054;-46
2022/11/23 06:49:33;;;;;;;9.45;1.75;;;11.80;56.10;;;;;;5022672;28;20065;-43
2022/11/23 06:52:00;;;;;;;12.70;1.80;;;11.80;56.10;;;;;;5017456;28;20057;-44
2022/11/23 06:54:27;;;;;;;13.48;1.88;;;11.80;56.20;;;;;;5024591;28;20057;-43
2022/11/23 06:56:54;;;;;;;7.03;1.30;;;11.80;56.10;;;;;;5024133;28;20053;-41
2022/11/23 06:59:23;;;;;;;10.30;2.08;;;11.90;56.20;;;;;;5026883;28;20064;-48
2022/11/23 07:01:50;;;;;;;14.90;2.20;;;11.80;56.20;;;;;;5017779;28;20395;-41
2022/11/23 07:04:18;;;;;;;16.38;2.90;;;11.80;56.20;;;;;;5024171;28;20584;-42
2022/11/23 07:06:45;;;;;;;10.07;1.95;;;11.90;56.20;;;;;;5026381;28;20068;-41
2022/11/23 07:09:12;;;;;;;14.75;2.50;;;11.90;56.20;;;;;;5025160;28;20425;-42
2022/11/23 07:11:39;;;;;;;13.55;2.10;;;11.90;56.20;;;;;;5024073;28;20049;-43
2022/11/23 07:14:07;;;;;;;10.23;2.08;;;11.90;56.20;;;;;;5022000;28;20053;-42
2022/11/23 07:16:35;;;;;;;9.63;1.95;;;11.90;56.10;;;;;;5022910;28;20528;-42
2022/11/23 07:19:03;;;;;;;10.55;1.90;;;11.90;56.10;;;;;;5026163;28;20049;-45
2022/11/23 07:21:30;;;;;;;6.90;1.65;;;11.90;56.10;;;;;;5023340;28;20053;-42
2022/11/23 07:23:57;;;;;;;12.75;2.45;;;11.90;56.10;;;;;;5024956;28;20058;-43
2022/11/23 07:26:25;;;;;;;10.95;2.20;;;11.90;56.10;;;;;;5022016;28;20044;-42
2022/11/23 07:28:52;;;;;;;12.02;1.60;;;12.00;56.10;;;;;;5020254;28;20050;-44
2022/11/23 07:31:19;;;;;;;9.80;1.83;;;12.00;56.10;;;;;;5020695;28;20061;-41
2022/11/23 07:33:48;;;;;;;9.02;2.13;;;12.00;56.00;;;;;;5022370;28;20053;-41
2022/11/23 07:36:15;;;;;;;13.45;2.28;;;12.00;56.00;;;;;;5025396;28;20053;-46
2022/11/23 07:38:42;;;;;;;9.18;1.67;;;12.00;56.00;;;;;;5021336;28;20045;-45
2022/11/23 07:41:10;;;;;;;9.80;2.28;;;12.00;56.00;;;;;;5018140;28;20053;-43
2022/11/23 07:43:37;;;;;;;9.73;2.00;;;12.00;56.00;;;;;;5025259;28;20053;-41
2022/11/23 07:46:04;;;;;;;9.07;2.25;;;12.00;56.00;;;;;;5021536;28;20412;-41
2022/11/23 07:48:32;;;;;;;9.73;2.05;;;12.00;55.90;;;;;;5022141;28;20045;-41
2022/11/23 07:51:00;;;;;;;11.85;2.38;;;12.00;55.90;;;;;;5022578;28;20046;-40
2022/11/23 07:53:27;;;;;;;12.25;2.05;;;12.10;55.90;;;;;;5024660;28;20057;-41
2022/11/23 07:55:57;;;;;;;13.90;2.00;;;12.10;55.90;;;;;;5026167;28;20061;-41
2022/11/23 07:58:25;;;;;;;9.52;1.70;;;12.10;55.90;;;;;;5025070;28;20056;-42
2022/11/23 08:00:52;;;;;;;14.45;2.22;;;12.10;55.90;;;;;;5018764;28;20060;-41
2022/11/23 08:03:19;;;;;;;6.03;1.85;;;12.10;55.90;;;;;;5024750;28;20053;-47
2022/11/23 08:05:47;;;;;;;15.95;2.30;;;12.10;55.90;;;;;;5021647;28;20057;-43
2022/11/23 08:08:15;;;;;;;13.23;2.20;;;12.10;55.90;;;;;;5023836;28;20402;-45
2022/11/23 08:10:43;;;;;;;8.40;2.00;;;12.10;55.80;;;;;;5019843;28;20060;-41
2022/11/23 08:13:10;;;;;;;10.93;2.13;;;12.10;55.80;;;;;;5020592;28;20057;-42
2022/11/23 08:15:37;;;;;;;11.48;1.80;;;12.10;55.80;;;;;;5020661;28;20413;-42
2022/11/23 08:18:05;;;;;;;10.90;2.08;;;12.10;55.70;;;;;;5025970;28;20057;-43
2022/11/23 08:20:33;;;;;;;12.50;1.85;;;12.10;55.70;;;;;;5022533;28;20497;-45
2022/11/23 08:23:00;;;;;;;10.05;2.20;;;12.20;55.70;;;;;;5022611;28;20049;-42
2022/11/23 08:25:29;;;;;;;10.13;2.05;;;12.10;55.70;;;;;;5019957;28;20065;-45
2022/11/23 08:27:57;;;;;;;12.05;2.30;;;12.20;55.70;;;;;;5024415;28;20061;-43
2022/11/23 08:30:25;;;;;;;33.95;12.02;;;12.20;55.60;;;;;;5017685;28;20064;-43
2022/11/23 08:32:52;;;;;;;47.85;18.35;;;12.20;55.60;;;;;;5023954;28;20057;-44
2022/11/23 08:35:20;;;;;;;17.45;5.05;;;12.20;55.60;;;;;;5022788;28;20513;-42
2022/11/23 08:37:47;;;;;;;12.13;3.25;;;12.20;55.60;;;;;;5019299;28;20880;-44
2022/11/23 08:40:15;;;;;;;14.00;3.20;;;12.20;55.70;;;;;;5019012;28;20057;-41
2022/11/23 08:42:44;;;;;;;17.08;2.35;;;12.20;55.60;;;;;;5020483;28;20410;-42
2022/11/23 08:45:11;;;;;;;14.10;2.03;;;12.20;55.60;;;;;;5019472;28;20072;-42
2022/11/23 08:47:38;;;;;;;15.63;1.95;;;12.20;55.60;;;;;;5021399;28;20057;-42
2022/11/23 08:50:07;;;;;;;18.65;2.60;;;12.20;55.50;;;;;;5018772;28;20528;-47
2022/11/23 08:52:35;;;;;;;15.18;2.40;;;12.20;55.50;;;;;;5022035;28;20058;-43
2022/11/23 08:55:02;;;;;;;17.55;2.03;;;12.20;55.50;;;;;;5022914;28;20049;-41
2022/11/23 08:57:29;;;;;;;13.57;2.40;;;12.20;55.50;;;;;;5022944;28;20057;-40
2022/11/23 08:59:58;;;;;;;11.00;1.80;;;12.20;55.40;;;;;;5023659;28;20049;-42
2022/11/23 09:02:25;;;;;;;10.23;2.00;;;12.30;55.40;;;;;;5020317;28;20057;-41
2022/11/23 09:04:52;;;;;;;13.10;2.08;;;12.30;55.40;;;;;;5023687;28;20053;-43
2022/11/23 09:07:19;;;;;;;12.68;2.08;;;12.30;55.20;;;;;;5022581;28;20057;-41
2022/11/23 09:09:47;;;;;;;6.85;1.80;;;12.30;55.20;;;;;;5023635;28;20050;-46
2022/11/23 09:12:14;;;;;;;13.00;2.15;;;12.30;55.20;;;;;;5019575;28;20417;-44
2022/11/23 09:14:41;;;;;;;10.02;2.17;;;12.30;55.20;;;;;;5019862;28;20049;-45
2022/11/23 09:17:10;;;;;;;9.40;1.83;;;12.30;55.20;;;;;;5021354;28;20060;-42
2022/11/23 09:19:37;;;;;;;11.27;2.05;;;12.30;55.10;;;;;;5022514;28;20505;-42
2022/11/23 09:22:04;;;;;;;10.77;1.65;;;12.30;55.20;;;;;;5015669;28;20064;-42
2022/11/23 09:24:32;;;;;;;12.80;2.42;;;12.40;55.20;;;;;;5024829;28;20057;-44
2022/11/23 09:26:59;;;;;;;11.18;2.30;;;12.40;55.20;;;;;;5022158;28;20080;-43
2022/11/23 09:29:27;;;;;;;12.52;2.53;;;12.40;55.10;;;;;;5023046;28;20060;-40
2022/11/23 09:31:54;;;;;;;11.32;1.80;;;12.40;54.90;;;;;;5019287;28;20053;-42
2022/11/23 09:34:23;;;;;;;11.07;2.33;;;12.40;54.90;;;;;;5019433;28;20045;-45
2022/11/23 09:36:50;;;;;;;12.38;2.35;;;12.50;55.00;;;;;;5022663;28;20045;-41
2022/11/23 09:39:17;;;;;;;8.68;2.10;;;12.50;54.80;;;;;;5024586;28;20056;-40
2022/11/23 09:42:08;;;;;;;15.85;2.42;;;12.40;54.70;;;;;;5020026;28;20394;-44
2022/11/23 09:44:52;;;;;;;9.55;2.13;;;12.50;54.70;;;;;;5018261;28;20952;-41
2022/11/23 09:47:38;;;;;;;12.25;2.53;;;12.50;54.70;;;;;;5019442;28;20057;-40
2022/11/23 09:50:15;;;;;;;8.77;2.50;;;12.50;54.40;;;;;;5020223;28;20045;-44
2022/11/23 09:52:45;;;;;;;8.95;2.65;;;12.50;54.50;;;;;;5018669;28;20433;-41
2022/11/23 09:55:17;;;;;;;14.77;2.60;;;12.50;54.90;;;;;;5017708;28;20103;-42
2022/11/23 09:57:47;;;;;;;12.35;2.70;;;12.50;54.40;;;;;;5019639;28;20525;-42
2022/11/23 10:00:18;;;;;;;11.98;3.03;;;12.60;54.50;;;;;;5016010;28;20053;-44
2022/11/23 10:02:47;;;;;;;8.65;2.72;;;12.60;54.50;;;;;;5017209;28;20528;-43
2022/11/23 10:05:19;;;;;;;11.40;3.05;;;12.60;54.60;;;;;;5019221;28;20064;-46
2022/11/23 10:08:04;;;;;;;13.23;3.25;;;12.60;54.80;;;;;;5020139;28;20076;-41
2022/11/23 10:10:41;;;;;;;16.38;3.45;;;12.60;54.30;;;;;;5014291;28;20049;-41
2022/11/23 10:13:24;;;;;;;10.98;3.05;;;12.60;54.30;;;;;;5016929;28;20497;-43
2022/11/23 10:16:04;;;;;;;14.85;2.90;;;12.70;54.30;;;;;;5016688;28;20077;-47
2022/11/23 10:18:44;;;;;;;10.93;2.67;;;12.70;54.20;;;;;;5020376;28;20053;-43
2022/11/23 10:21:22;;;;;;;14.02;2.97;;;12.70;54.10;;;;;;5020194;28;20061;-43
2022/11/23 10:23:55;;;;;;;16.40;3.17;;;12.70;53.90;;;;;;5017893;28;20083;-41
2022/11/23 10:26:28;;;;;;;8.90;2.42;;;12.80;53.80;;;;;;5015124;28;20417;-45
2022/11/23 10:28:58;;;;;;;16.77;3.00;;;12.80;53.80;;;;;;5017936;28;20053;-43
2022/11/23 10:31:25;;;;;;;11.05;2.97;;;12.80;53.80;;;;;;5019617;28;20067;-44
2022/11/23 10:34:04;;;;;;;12.15;2.78;;;12.80;53.60;;;;;;5023573;28;20076;-44
2022/11/23 10:36:35;;;;;;;16.80;3.35;;;12.80;53.50;;;;;;5018889;28;20053;-44
2022/11/23 10:39:14;;;;;;;12.35;3.45;;;12.80;53.30;;;;;;5023218;28;20046;-41
2022/11/23 10:41:41;;;;;;;10.23;2.65;;;12.90;53.40;;;;;;5013908;28;20049;-41
2022/11/23 10:44:22;;;;;;;8.55;2.70;;;12.90;53.40;;;;;;5018996;28;20053;-42
2022/11/23 10:46:49;;;;;;;7.75;2.10;;;12.80;53.50;;;;;;5017427;28;20053;-43
2022/11/23 10:49:19;;;;;;;10.52;2.83;;;12.80;53.70;;;;;;5017168;28;20057;-41
2022/11/23 10:51:56;;;;;;;12.60;2.45;;;12.90;53.70;;;;;;5013260;28;20053;-45
2022/11/23 10:54:28;;;;;;;16.95;3.92;;;12.90;53.50;;;;;;5019157;28;20053;-44
2022/11/23 10:56:56;;;;;;;12.77;3.08;;;12.90;53.40;;;;;;5022019;28;20057;-41
2022/11/23 10:59:35;;;;;;;12.60;3.60;;;12.90;53.40;;;;;;5020489;28;20509;-42
2022/11/23 11:02:14;;;;;;;11.25;3.28;;;12.90;53.20;;;;;;5015271;28;20045;-47
2022/11/23 11:04:42;;;;;;;11.05;3.00;;;13.00;53.30;;;;;;5016977;28;20065;-42
2022/11/23 11:07:27;;;;;;;11.48;2.83;;;13.00;53.30;;;;;;5018500;28;20054;-43
2022/11/23 11:09:56;;;;;;;9.18;2.13;;;13.00;52.90;;;;;;5020408;28;20050;-41
2022/11/23 11:12:25;;;;;;;13.68;2.83;;;13.00;52.90;;;;;;5019656;28;20049;-41
2022/11/23 11:15:02;;;;;;;9.30;2.20;;;13.00;52.80;;;;;;5017444;28;20072;-42
2022/11/23 11:17:32;;;;;;;8.10;1.95;;;13.00;52.60;;;;;;5013931;28;20049;-42
2022/11/23 11:19:59;;;;;;;10.25;2.83;;;13.00;52.70;;;;;;5018733;28;20046;-42
2022/11/23 11:22:34;;;;;;;7.35;2.42;;;13.00;52.70;;;;;;5021156;28;20049;-42
2022/11/23 11:25:03;;;;;;;12.10;2.88;;;13.00;52.60;;;;;;5018674;28;20061;-47
2022/11/23 11:27:31;;;;;;;9.35;2.47;;;13.00;52.60;;;;;;5021010;28;20054;-44
2022/11/23 11:30:05;;;;;;;12.82;2.90;;;13.00;52.60;;;;;;5020264;28;20049;-42
2022/11/23 11:32:42;;;;;;;7.17;2.43;;;13.00;52.40;;;;;;5016630;28;20072;-43
2022/11/23 11:35:14;;;;;;;14.30;3.13;;;13.00;52.60;;;;;;5020776;28;20493;-42
2022/11/23 11:37:44;;;;;;;8.43;2.70;;;13.00;52.50;;;;;;5021485;28;20520;-46
2022/11/23 11:40:21;;;;;;;8.90;2.58;;;13.00;52.60;;;;;;5018944;28;20097;-46
2022/11/23 11:42:55;;;;;;;8.43;2.70;;;13.00;52.50;;;;;;5020933;28;20049;-45
2022/11/23 11:45:26;;;;;;;11.10;2.55;;;13.10;52.50;;;;;;5019873;28;20057;-43
2022/11/23 11:47:59;;;;;;;8.27;2.55;;;13.10;52.50;;;;;;5018365;28;20049;-42
2022/11/23 11:50:30;;;;;;;14.48;3.17;;;13.10;52.20;;;;;;5020001;28;20390;-41
2022/11/23 11:53:04;;;;;;;6.25;2.53;;;13.20;52.30;;;;;;5024624;28;20056;-46
2022/11/23 11:55:44;;;;;;;7.75;2.75;;;13.20;52.80;;;;;;5021618;28;20490;-44
2022/11/23 11:58:16;;;;;;;11.85;3.22;;;13.20;52.10;;;;;;5020005;28;20080;-43
2022/11/23 12:00:45;;;;;;;11.57;2.50;;;13.20;52.10;;;;;;5020243;28;20389;-45
2022/11/23 12:03:21;;;;;;;10.60;3.30;;;13.20;52.00;;;;;;5023767;28;20390;-44
2022/11/23 12:05:52;;;;;;;14.77;4.93;;;13.30;52.00;;;;;;5004078;28;20056;-49
2022/11/23 12:08:29;;;;;;;8.68;2.63;;;13.30;51.90;;;;;;5026361;28;20057;-46
2022/11/23 12:11:00;;;;;;;6.50;2.42;;;13.30;51.90;;;;;;5023229;28;20053;-43
2022/11/23 12:13:30;;;;;;;12.80;2.08;;;13.30;51.70;;;;;;5025421;28;20056;-46
2022/11/23 12:16:08;;;;;;;6.45;2.20;;;13.30;51.40;;;;;;5019595;28;20482;-44
2022/11/23 12:18:59;;;;;;;5.18;1.85;;;13.40;51.10;;;;;;5024273;28;20060;-42
2022/11/23 12:21:48;;;;;;;7.57;1.88;;;13.30;50.80;;;;;;5018509;28;20053;-42
2022/11/23 12:24:25;;;;;;;9.43;2.28;;;13.40;51.10;;;;;;5023761;28;20497;-48
2022/11/23 12:27:02;;;;;;;9.38;2.72;;;13.40;51.10;;;;;;5023930;28;20052;-46
2022/11/23 12:29:44;;;;;;;10.02;2.10;;;13.40;51.30;;;;;;5021520;28;20060;-44
2022/11/23 12:32:21;;;;;;;11.43;3.95;;;13.40;51.10;;;;;;5022566;28;20056;-44
2022/11/23 12:35:10;;;;;;;6.32;2.00;;;13.40;51.10;;;;;;5023639;28;20053;-42
2022/11/23 12:37:47;;;;;;;6.50;1.90;;;13.40;50.90;;;;;;5026473;28;20061;-42
2022/11/23 12:40:33;;;;;;;8.20;2.10;;;13.50;51.00;;;;;;5022473;28;20065;-42
2022/11/23 12:43:06;;;;;;;4.68;2.00;;;13.50;50.90;;;;;;5025100;28;20049;-42
2022/11/23 12:45:47;;;;;;;9.82;1.85;;;13.50;51.10;;;;;;5021273;28;20512;-45
2022/11/23 12:48:38;;;;;;;7.20;2.00;;;13.50;51.20;;;;;;5021693;28;20057;-41
2022/11/23 12:51:16;;;;;;;8.65;1.90;;;13.50;50.80;;;;;;5022445;28;20060;-43
2022/11/23 12:53:55;;;;;;;8.27;2.17;;;13.50;50.90;;;;;;5023779;28;20058;-42
2022/11/23 12:56:48;;;;;;;6.40;1.58;;;13.50;50.80;;;;;;5023032;28;20512;-42